sensor_id;sensor_type;location;lat;lon;timestamp;P1;durP1;ratioP1;P2;durP2;ratioP2
52858;SDS011;38721;53.098;6.596;2023-08-20T00:00:52;6.45;;;3.13;;
52858;SDS011;38721;53.098;6.596;2023-08-20T00:03:18;6.88;;;3.60;;
52858;SDS011;38721;53.098;6.596;2023-08-20T00:05:44;5.40;;;3.42;;
52858;SDS011;38721;53.098;6.596;2023-08-20T00:08:10;8.80;;;4.10;;
52858;SDS011;38721;53.098;6.596;2023-08-20T00:10:35;9.27;;;4.07;;
52858;SDS011;38721;53.098;6.596;2023-08-20T00:13:01;11.02;;;4.50;;
52858;SDS011;38721;53.098;6.596;2023-08-20T00:15:30;12.57;;;5.13;;
52858;SDS011;38721;53.098;6.596;2023-08-20T00:17:56;10.15;;;4.70;;
52858;SDS011;38721;53.098;6.596;2023-08-20T00:20:21;6.45;;;4.55;;
52858;SDS011;38721;53.098;6.596;2023-08-20T00:22:47;7.20;;;4.47;;
52858;SDS011;38721;53.098;6.596;2023-08-20T00:25:14;8.90;;;4.28;;
52858;SDS011;38721;53.098;6.596;2023-08-20T00:27:41;7.28;;;4.38;;
52858;SDS011;38721;53.098;6.596;2023-08-20T00:30:08;7.80;;;4.90;;
52858;SDS011;38721;53.098;6.596;2023-08-20T00:32:35;7.55;;;4.65;;
52858;SDS011;38721;53.098;6.596;2023-08-20T00:35:01;6.80;;;4.05;;
52858;SDS011;38721;53.098;6.596;2023-08-20T00:37:30;6.93;;;4.43;;
52858;SDS011;38721;53.098;6.596;2023-08-20T00:39:56;6.07;;;3.88;;
52858;SDS011;38721;53.098;6.596;2023-08-20T00:42:23;6.18;;;3.95;;
52858;SDS011;38721;53.098;6.596;2023-08-20T00:44:50;8.27;;;3.75;;
52858;SDS011;38721;53.098;6.596;2023-08-20T00:47:16;9.60;;;4.72;;
52858;SDS011;38721;53.098;6.596;2023-08-20T00:49:43;7.00;;;3.90;;
52858;SDS011;38721;53.098;6.596;2023-08-20T00:52:12;6.15;;;3.67;;
52858;SDS011;38721;53.098;6.596;2023-08-20T00:54:40;6.53;;;3.90;;
52858;SDS011;38721;53.098;6.596;2023-08-20T00:57:06;8.13;;;3.65;;
52858;SDS011;38721;53.098;6.596;2023-08-20T00:59:33;4.68;;;3.40;;
52858;SDS011;38721;53.098;6.596;2023-08-20T01:02:00;7.18;;;4.30;;
52858;SDS011;38721;53.098;6.596;2023-08-20T01:04:26;6.63;;;4.53;;
52858;SDS011;38721;53.098;6.596;2023-08-20T01:12:20;5.28;;;3.80;;
52858;SDS011;38721;53.098;6.596;2023-08-20T01:14:47;6.97;;;3.92;;
52858;SDS011;38721;53.098;6.596;2023-08-20T01:17:13;5.65;;;4.00;;
52858;SDS011;38721;53.098;6.596;2023-08-20T01:19:39;8.40;;;4.13;;
52858;SDS011;38721;53.098;6.596;2023-08-20T01:25:32;6.47;;;3.50;;
52858;SDS011;38721;53.098;6.596;2023-08-20T01:30:45;6.88;;;3.88;;
52858;SDS011;38721;53.098;6.596;2023-08-20T01:33:12;7.13;;;4.10;;
52858;SDS011;38721;53.098;6.596;2023-08-20T01:35:39;5.35;;;3.88;;
52858;SDS011;38721;53.098;6.596;2023-08-20T01:38:05;5.80;;;3.60;;
52858;SDS011;38721;53.098;6.596;2023-08-20T01:40:31;6.03;;;3.80;;
52858;SDS011;38721;53.098;6.596;2023-08-20T01:42:57;6.03;;;3.85;;
52858;SDS011;38721;53.098;6.596;2023-08-20T01:45:23;6.47;;;4.07;;
52858;SDS011;38721;53.098;6.596;2023-08-20T01:47:48;7.50;;;4.47;;
52858;SDS011;38721;53.098;6.596;2023-08-20T01:50:14;7.93;;;4.72;;
52858;SDS011;38721;53.098;6.596;2023-08-20T01:52:39;7.85;;;4.57;;
52858;SDS011;38721;53.098;6.596;2023-08-20T01:55:05;10.43;;;5.13;;
52858;SDS011;38721;53.098;6.596;2023-08-20T01:57:31;11.60;;;5.78;;
52858;SDS011;38721;53.098;6.596;2023-08-20T01:59:57;8.73;;;4.72;;
52858;SDS011;38721;53.098;6.596;2023-08-20T02:02:23;8.60;;;4.47;;
52858;SDS011;38721;53.098;6.596;2023-08-20T02:04:49;9.40;;;5.30;;
52858;SDS011;38721;53.098;6.596;2023-08-20T02:07:15;10.43;;;5.75;;
52858;SDS011;38721;53.098;6.596;2023-08-20T02:09:43;10.45;;;6.00;;
52858;SDS011;38721;53.098;6.596;2023-08-20T02:12:09;15.45;;;6.32;;
52858;SDS011;38721;53.098;6.596;2023-08-20T02:14:34;11.60;;;6.47;;
52858;SDS011;38721;53.098;6.596;2023-08-20T02:17:01;10.00;;;6.13;;
52858;SDS011;38721;53.098;6.596;2023-08-20T02:19:27;13.00;;;6.80;;
52858;SDS011;38721;53.098;6.596;2023-08-20T02:21:53;8.50;;;6.10;;
52858;SDS011;38721;53.098;6.596;2023-08-20T02:24:18;16.90;;;7.45;;
52858;SDS011;38721;53.098;6.596;2023-08-20T02:26:44;13.55;;;7.40;;
52858;SDS011;38721;53.098;6.596;2023-08-20T02:29:10;15.02;;;6.97;;
52858;SDS011;38721;53.098;6.596;2023-08-20T02:31:36;16.52;;;7.55;;
52858;SDS011;38721;53.098;6.596;2023-08-20T02:34:01;14.48;;;7.15;;
52858;SDS011;38721;53.098;6.596;2023-08-20T02:36:27;11.82;;;7.40;;
52858;SDS011;38721;53.098;6.596;2023-08-20T02:38:53;11.55;;;7.03;;
52858;SDS011;38721;53.098;6.596;2023-08-20T02:41:19;14.38;;;7.93;;
52858;SDS011;38721;53.098;6.596;2023-08-20T02:43:44;15.10;;;8.57;;
52858;SDS011;38721;53.098;6.596;2023-08-20T02:46:10;15.15;;;7.82;;
52858;SDS011;38721;53.098;6.596;2023-08-20T02:48:36;12.75;;;8.38;;
52858;SDS011;38721;53.098;6.596;2023-08-20T02:51:02;15.27;;;8.20;;
52858;SDS011;38721;53.098;6.596;2023-08-20T02:53:27;12.38;;;8.20;;
52858;SDS011;38721;53.098;6.596;2023-08-20T02:55:53;13.75;;;8.27;;
52858;SDS011;38721;53.098;6.596;2023-08-20T02:58:19;11.60;;;7.97;;
52858;SDS011;38721;53.098;6.596;2023-08-20T03:00:45;14.35;;;8.18;;
52858;SDS011;38721;53.098;6.596;2023-08-20T03:03:10;17.33;;;8.70;;
52858;SDS011;38721;53.098;6.596;2023-08-20T03:05:36;14.20;;;8.65;;
52858;SDS011;38721;53.098;6.596;2023-08-20T03:08:02;14.43;;;8.13;;
52858;SDS011;38721;53.098;6.596;2023-08-20T03:10:31;15.48;;;8.15;;
52858;SDS011;38721;53.098;6.596;2023-08-20T03:12:58;13.35;;;8.57;;
52858;SDS011;38721;53.098;6.596;2023-08-20T03:15:24;13.48;;;7.88;;
52858;SDS011;38721;53.098;6.596;2023-08-20T03:17:49;12.13;;;8.13;;
52858;SDS011;38721;53.098;6.596;2023-08-20T03:20:15;15.35;;;8.23;;
52858;SDS011;38721;53.098;6.596;2023-08-20T03:22:41;15.32;;;7.93;;
52858;SDS011;38721;53.098;6.596;2023-08-20T03:25:07;14.50;;;8.07;;
52858;SDS011;38721;53.098;6.596;2023-08-20T03:27:32;16.48;;;8.65;;
52858;SDS011;38721;53.098;6.596;2023-08-20T03:29:58;14.20;;;8.02;;
52858;SDS011;38721;53.098;6.596;2023-08-20T03:32:24;15.73;;;8.25;;
52858;SDS011;38721;53.098;6.596;2023-08-20T03:34:50;12.45;;;7.70;;
52858;SDS011;38721;53.098;6.596;2023-08-20T03:37:16;13.45;;;7.22;;
52858;SDS011;38721;53.098;6.596;2023-08-20T03:39:42;9.57;;;7.07;;
52858;SDS011;38721;53.098;6.596;2023-08-20T03:42:08;12.60;;;8.02;;
52858;SDS011;38721;53.098;6.596;2023-08-20T03:44:33;14.77;;;7.55;;
52858;SDS011;38721;53.098;6.596;2023-08-20T03:46:59;10.93;;;7.03;;
52858;SDS011;38721;53.098;6.596;2023-08-20T03:49:24;11.77;;;7.65;;
52858;SDS011;38721;53.098;6.596;2023-08-20T03:51:50;12.02;;;7.10;;
52858;SDS011;38721;53.098;6.596;2023-08-20T03:54:16;11.45;;;6.47;;
52858;SDS011;38721;53.098;6.596;2023-08-20T03:56:41;14.77;;;7.43;;
52858;SDS011;38721;53.098;6.596;2023-08-20T03:59:07;11.05;;;7.43;;
52858;SDS011;38721;53.098;6.596;2023-08-20T04:01:32;9.65;;;6.72;;
52858;SDS011;38721;53.098;6.596;2023-08-20T04:03:58;11.85;;;6.97;;
52858;SDS011;38721;53.098;6.596;2023-08-20T04:06:25;9.23;;;6.85;;
52858;SDS011;38721;53.098;6.596;2023-08-20T04:08:50;11.07;;;7.38;;
52858;SDS011;38721;53.098;6.596;2023-08-20T04:11:16;11.40;;;7.45;;
52858;SDS011;38721;53.098;6.596;2023-08-20T04:13:42;12.35;;;7.30;;
52858;SDS011;38721;53.098;6.596;2023-08-20T04:16:09;11.75;;;6.93;;
52858;SDS011;38721;53.098;6.596;2023-08-20T04:18:35;14.85;;;7.72;;
52858;SDS011;38721;53.098;6.596;2023-08-20T04:21:00;12.57;;;7.13;;
52858;SDS011;38721;53.098;6.596;2023-08-20T04:23:26;9.68;;;6.47;;
52858;SDS011;38721;53.098;6.596;2023-08-20T04:25:52;13.95;;;7.30;;
52858;SDS011;38721;53.098;6.596;2023-08-20T04:28:18;10.90;;;7.22;;
52858;SDS011;38721;53.098;6.596;2023-08-20T04:30:43;14.82;;;8.27;;
52858;SDS011;38721;53.098;6.596;2023-08-20T04:33:09;11.73;;;7.80;;
52858;SDS011;38721;53.098;6.596;2023-08-20T04:35:35;12.15;;;7.68;;
52858;SDS011;38721;53.098;6.596;2023-08-20T04:38:01;11.70;;;7.82;;
52858;SDS011;38721;53.098;6.596;2023-08-20T04:40:27;12.48;;;7.28;;
52858;SDS011;38721;53.098;6.596;2023-08-20T04:42:53;13.43;;;7.88;;
52858;SDS011;38721;53.098;6.596;2023-08-20T04:45:19;12.52;;;7.93;;
52858;SDS011;38721;53.098;6.596;2023-08-20T04:47:45;9.73;;;7.38;;
52858;SDS011;38721;53.098;6.596;2023-08-20T04:50:11;10.93;;;6.97;;
52858;SDS011;38721;53.098;6.596;2023-08-20T04:52:38;11.38;;;7.35;;
52858;SDS011;38721;53.098;6.596;2023-08-20T04:55:03;13.55;;;7.65;;
52858;SDS011;38721;53.098;6.596;2023-08-20T04:57:29;13.52;;;7.60;;
52858;SDS011;38721;53.098;6.596;2023-08-20T04:59:55;10.13;;;7.40;;
52858;SDS011;38721;53.098;6.596;2023-08-20T05:02:21;12.32;;;7.72;;
52858;SDS011;38721;53.098;6.596;2023-08-20T05:04:46;10.68;;;7.63;;
52858;SDS011;38721;53.098;6.596;2023-08-20T05:07:15;10.68;;;7.45;;
52858;SDS011;38721;53.098;6.596;2023-08-20T05:09:40;12.68;;;7.80;;
52858;SDS011;38721;53.098;6.596;2023-08-20T05:12:06;12.82;;;8.32;;
52858;SDS011;38721;53.098;6.596;2023-08-20T05:14:32;12.05;;;7.47;;
52858;SDS011;38721;53.098;6.596;2023-08-20T05:16:58;12.13;;;6.95;;
52858;SDS011;38721;53.098;6.596;2023-08-20T05:19:24;10.18;;;7.32;;
52858;SDS011;38721;53.098;6.596;2023-08-20T05:21:50;14.80;;;8.00;;
52858;SDS011;38721;53.098;6.596;2023-08-20T05:24:23;16.95;;;8.27;;
52858;SDS011;38721;53.098;6.596;2023-08-20T05:27:03;14.60;;;8.23;;
52858;SDS011;38721;53.098;6.596;2023-08-20T05:29:39;11.00;;;7.15;;
52858;SDS011;38721;53.098;6.596;2023-08-20T05:32:05;12.60;;;7.40;;
52858;SDS011;38721;53.098;6.596;2023-08-20T05:34:32;13.65;;;8.45;;
52858;SDS011;38721;53.098;6.596;2023-08-20T05:36:57;10.45;;;7.53;;
52858;SDS011;38721;53.098;6.596;2023-08-20T05:39:23;13.50;;;7.57;;
52858;SDS011;38721;53.098;6.596;2023-08-20T05:41:51;12.70;;;7.50;;
52858;SDS011;38721;53.098;6.596;2023-08-20T05:44:17;17.17;;;8.13;;
52858;SDS011;38721;53.098;6.596;2023-08-20T05:46:43;13.85;;;7.60;;
52858;SDS011;38721;53.098;6.596;2023-08-20T05:49:09;10.45;;;7.25;;
52858;SDS011;38721;53.098;6.596;2023-08-20T05:51:37;11.68;;;7.65;;
52858;SDS011;38721;53.098;6.596;2023-08-20T05:54:03;12.23;;;8.02;;
52858;SDS011;38721;53.098;6.596;2023-08-20T05:56:29;11.13;;;7.63;;
52858;SDS011;38721;53.098;6.596;2023-08-20T05:58:55;15.43;;;7.13;;
52858;SDS011;38721;53.098;6.596;2023-08-20T06:01:21;14.25;;;7.72;;
52858;SDS011;38721;53.098;6.596;2023-08-20T06:03:46;12.43;;;7.22;;
52858;SDS011;38721;53.098;6.596;2023-08-20T06:06:12;13.30;;;6.63;;
52858;SDS011;38721;53.098;6.596;2023-08-20T06:08:38;11.40;;;7.07;;
52858;SDS011;38721;53.098;6.596;2023-08-20T06:11:03;11.00;;;6.45;;
52858;SDS011;38721;53.098;6.596;2023-08-20T06:13:29;12.23;;;6.30;;
52858;SDS011;38721;53.098;6.596;2023-08-20T06:15:55;9.43;;;6.25;;
52858;SDS011;38721;53.098;6.596;2023-08-20T06:18:20;9.93;;;5.85;;
52858;SDS011;38721;53.098;6.596;2023-08-20T06:20:46;11.52;;;5.95;;
52858;SDS011;38721;53.098;6.596;2023-08-20T06:23:14;9.13;;;5.00;;
52858;SDS011;38721;53.098;6.596;2023-08-20T06:25:40;12.10;;;5.88;;
52858;SDS011;38721;53.098;6.596;2023-08-20T06:28:05;9.40;;;5.30;;
52858;SDS011;38721;53.098;6.596;2023-08-20T06:30:31;9.98;;;5.28;;
52858;SDS011;38721;53.098;6.596;2023-08-20T06:32:56;11.45;;;5.75;;
52858;SDS011;38721;53.098;6.596;2023-08-20T06:35:22;7.57;;;5.25;;
52858;SDS011;38721;53.098;6.596;2023-08-20T06:37:48;12.40;;;5.32;;
52858;SDS011;38721;53.098;6.596;2023-08-20T06:40:14;10.52;;;5.72;;
52858;SDS011;38721;53.098;6.596;2023-08-20T06:42:42;10.32;;;5.43;;
52858;SDS011;38721;53.098;6.596;2023-08-20T06:45:08;12.70;;;5.88;;
52858;SDS011;38721;53.098;6.596;2023-08-20T06:47:34;11.70;;;5.47;;
52858;SDS011;38721;53.098;6.596;2023-08-20T06:50:00;9.23;;;4.90;;
52858;SDS011;38721;53.098;6.596;2023-08-20T06:52:25;11.05;;;5.28;;
52858;SDS011;38721;53.098;6.596;2023-08-20T06:54:51;10.98;;;5.43;;
52858;SDS011;38721;53.098;6.596;2023-08-20T06:57:17;10.25;;;5.18;;
52858;SDS011;38721;53.098;6.596;2023-08-20T06:59:42;10.93;;;5.50;;
52858;SDS011;38721;53.098;6.596;2023-08-20T07:02:08;12.90;;;5.38;;
52858;SDS011;38721;53.098;6.596;2023-08-20T07:04:35;11.23;;;4.88;;
52858;SDS011;38721;53.098;6.596;2023-08-20T07:07:00;8.60;;;4.30;;
52858;SDS011;38721;53.098;6.596;2023-08-20T07:09:26;13.90;;;4.90;;
52858;SDS011;38721;53.098;6.596;2023-08-20T07:11:52;8.70;;;5.18;;
52858;SDS011;38721;53.098;6.596;2023-08-20T07:14:21;12.20;;;5.07;;
52858;SDS011;38721;53.098;6.596;2023-08-20T07:16:49;8.73;;;4.65;;
52858;SDS011;38721;53.098;6.596;2023-08-20T07:19:15;8.73;;;4.35;;
52858;SDS011;38721;53.098;6.596;2023-08-20T07:21:41;10.25;;;4.15;;
52858;SDS011;38721;53.098;6.596;2023-08-20T07:24:06;12.15;;;5.15;;
52858;SDS011;38721;53.098;6.596;2023-08-20T07:26:32;12.95;;;4.40;;
52858;SDS011;38721;53.098;6.596;2023-08-20T07:28:58;10.40;;;4.60;;
52858;SDS011;38721;53.098;6.596;2023-08-20T07:31:28;10.48;;;4.40;;
52858;SDS011;38721;53.098;6.596;2023-08-20T07:33:56;10.70;;;4.72;;
52858;SDS011;38721;53.098;6.596;2023-08-20T07:36:23;15.15;;;4.80;;
52858;SDS011;38721;53.098;6.596;2023-08-20T07:38:53;11.25;;;3.97;;
52858;SDS011;38721;53.098;6.596;2023-08-20T07:41:22;9.32;;;3.90;;
52858;SDS011;38721;53.098;6.596;2023-08-20T07:43:48;10.93;;;4.43;;
52858;SDS011;38721;53.098;6.596;2023-08-20T07:46:17;7.90;;;3.63;;
52858;SDS011;38721;53.098;6.596;2023-08-20T07:48:43;10.05;;;3.90;;
52858;SDS011;38721;53.098;6.596;2023-08-20T07:51:09;13.82;;;4.55;;
52858;SDS011;38721;53.098;6.596;2023-08-20T07:53:35;8.15;;;3.40;;
52858;SDS011;38721;53.098;6.596;2023-08-20T07:56:01;10.60;;;3.75;;
52858;SDS011;38721;53.098;6.596;2023-08-20T07:58:27;8.95;;;3.70;;
52858;SDS011;38721;53.098;6.596;2023-08-20T08:00:53;10.15;;;3.33;;
52858;SDS011;38721;53.098;6.596;2023-08-20T08:03:19;10.35;;;3.58;;
52858;SDS011;38721;53.098;6.596;2023-08-20T08:05:48;8.02;;;2.85;;
52858;SDS011;38721;53.098;6.596;2023-08-20T08:08:15;9.85;;;3.40;;
52858;SDS011;38721;53.098;6.596;2023-08-20T08:10:41;9.35;;;3.10;;
52858;SDS011;38721;53.098;6.596;2023-08-20T08:13:13;10.43;;;3.00;;
52858;SDS011;38721;53.098;6.596;2023-08-20T08:15:39;10.18;;;2.97;;
52858;SDS011;38721;53.098;6.596;2023-08-20T08:18:06;7.05;;;2.45;;
52858;SDS011;38721;53.098;6.596;2023-08-20T08:20:35;11.00;;;2.47;;
52858;SDS011;38721;53.098;6.596;2023-08-20T08:23:01;6.65;;;2.53;;
52858;SDS011;38721;53.098;6.596;2023-08-20T08:25:27;7.85;;;2.50;;
52858;SDS011;38721;53.098;6.596;2023-08-20T08:27:53;4.65;;;2.13;;
52858;SDS011;38721;53.098;6.596;2023-08-20T08:30:19;8.43;;;2.70;;
52858;SDS011;38721;53.098;6.596;2023-08-20T08:32:47;7.63;;;2.22;;
52858;SDS011;38721;53.098;6.596;2023-08-20T08:35:13;7.07;;;2.50;;
52858;SDS011;38721;53.098;6.596;2023-08-20T08:37:38;7.13;;;2.42;;
52858;SDS011;38721;53.098;6.596;2023-08-20T08:40:04;6.13;;;2.22;;
52858;SDS011;38721;53.098;6.596;2023-08-20T08:42:32;10.10;;;2.42;;
52858;SDS011;38721;53.098;6.596;2023-08-20T08:45:01;9.40;;;2.05;;
52858;SDS011;38721;53.098;6.596;2023-08-20T08:47:29;7.10;;;1.90;;
52858;SDS011;38721;53.098;6.596;2023-08-20T08:49:55;8.05;;;2.30;;
52858;SDS011;38721;53.098;6.596;2023-08-20T08:52:24;9.38;;;2.28;;
52858;SDS011;38721;53.098;6.596;2023-08-20T08:54:51;7.40;;;1.98;;
52858;SDS011;38721;53.098;6.596;2023-08-20T08:57:17;7.75;;;2.35;;
52858;SDS011;38721;53.098;6.596;2023-08-20T08:59:43;7.32;;;2.08;;
52858;SDS011;38721;53.098;6.596;2023-08-20T09:02:09;5.13;;;2.22;;
52858;SDS011;38721;53.098;6.596;2023-08-20T09:04:40;5.90;;;2.00;;
52858;SDS011;38721;53.098;6.596;2023-08-20T09:07:10;10.70;;;2.38;;
52858;SDS011;38721;53.098;6.596;2023-08-20T09:09:38;6.80;;;1.77;;
52858;SDS011;38721;53.098;6.596;2023-08-20T09:12:20;6.20;;;1.98;;
52858;SDS011;38721;53.098;6.596;2023-08-20T09:14:47;2.92;;;1.50;;
52858;SDS011;38721;53.098;6.596;2023-08-20T09:17:16;7.63;;;1.83;;
52858;SDS011;38721;53.098;6.596;2023-08-20T09:19:46;6.00;;;1.80;;
52858;SDS011;38721;53.098;6.596;2023-08-20T09:22:12;6.95;;;1.58;;
52858;SDS011;38721;53.098;6.596;2023-08-20T09:24:39;7.70;;;1.85;;
52858;SDS011;38721;53.098;6.596;2023-08-20T09:27:07;6.00;;;1.65;;
52858;SDS011;38721;53.098;6.596;2023-08-20T09:29:33;5.05;;;1.60;;
52858;SDS011;38721;53.098;6.596;2023-08-20T09:32:09;7.72;;;1.85;;
52858;SDS011;38721;53.098;6.596;2023-08-20T09:34:58;7.13;;;2.00;;
52858;SDS011;38721;53.098;6.596;2023-08-20T09:37:24;8.18;;;2.05;;
52858;SDS011;38721;53.098;6.596;2023-08-20T09:39:50;5.78;;;1.65;;
52858;SDS011;38721;53.098;6.596;2023-08-20T09:42:16;6.03;;;1.92;;
52858;SDS011;38721;53.098;6.596;2023-08-20T09:44:43;5.10;;;2.08;;
52858;SDS011;38721;53.098;6.596;2023-08-20T09:47:11;4.18;;;1.80;;
52858;SDS011;38721;53.098;6.596;2023-08-20T09:49:38;9.13;;;2.15;;
52858;SDS011;38721;53.098;6.596;2023-08-20T09:52:08;8.38;;;1.75;;
52858;SDS011;38721;53.098;6.596;2023-08-20T09:54:54;5.95;;;1.73;;
52858;SDS011;38721;53.098;6.596;2023-08-20T10:00:00;5.30;;;1.98;;
52858;SDS011;38721;53.098;6.596;2023-08-20T10:02:28;4.63;;;1.48;;
52858;SDS011;38721;53.098;6.596;2023-08-20T10:04:54;5.25;;;1.70;;
52858;SDS011;38721;53.098;6.596;2023-08-20T10:07:20;7.25;;;1.80;;
52858;SDS011;38721;53.098;6.596;2023-08-20T10:09:47;5.38;;;1.65;;
52858;SDS011;38721;53.098;6.596;2023-08-20T10:12:15;4.85;;;1.70;;
52858;SDS011;38721;53.098;6.596;2023-08-20T10:14:41;4.97;;;2.17;;
52858;SDS011;38721;53.098;6.596;2023-08-20T10:17:11;6.45;;;2.13;;
52858;SDS011;38721;53.098;6.596;2023-08-20T10:19:37;5.30;;;1.90;;
52858;SDS011;38721;53.098;6.596;2023-08-20T10:22:03;6.75;;;2.05;;
52858;SDS011;38721;53.098;6.596;2023-08-20T10:24:51;4.40;;;1.90;;
52858;SDS011;38721;53.098;6.596;2023-08-20T10:27:25;8.93;;;2.20;;
52858;SDS011;38721;53.098;6.596;2023-08-20T10:29:55;6.53;;;2.10;;
52858;SDS011;38721;53.098;6.596;2023-08-20T10:35:15;4.38;;;2.30;;
52858;SDS011;38721;53.098;6.596;2023-08-20T10:43:30;7.55;;;2.30;;
52858;SDS011;38721;53.098;6.596;2023-08-20T10:46:03;6.60;;;2.13;;
52858;SDS011;38721;53.098;6.596;2023-08-20T10:48:39;7.85;;;2.22;;
52858;SDS011;38721;53.098;6.596;2023-08-20T10:51:06;6.70;;;1.95;;
52858;SDS011;38721;53.098;6.596;2023-08-20T10:53:38;6.70;;;1.80;;
52858;SDS011;38721;53.098;6.596;2023-08-20T10:56:09;5.40;;;1.77;;
52858;SDS011;38721;53.098;6.596;2023-08-20T10:58:38;5.47;;;1.80;;
52858;SDS011;38721;53.098;6.596;2023-08-20T11:01:15;5.00;;;1.55;;
52858;SDS011;38721;53.098;6.596;2023-08-20T11:03:50;5.10;;;1.70;;
52858;SDS011;38721;53.098;6.596;2023-08-20T11:06:16;4.60;;;1.60;;
52858;SDS011;38721;53.098;6.596;2023-08-20T11:08:43;5.47;;;1.60;;
52858;SDS011;38721;53.098;6.596;2023-08-20T11:11:09;3.97;;;1.45;;
52858;SDS011;38721;53.098;6.596;2023-08-20T11:13:39;6.88;;;1.55;;
52858;SDS011;38721;53.098;6.596;2023-08-20T11:16:05;4.68;;;1.40;;
52858;SDS011;38721;53.098;6.596;2023-08-20T11:18:32;4.47;;;1.35;;
52858;SDS011;38721;53.098;6.596;2023-08-20T11:20:59;4.95;;;1.20;;
52858;SDS011;38721;53.098;6.596;2023-08-20T11:23:25;4.15;;;1.30;;
52858;SDS011;38721;53.098;6.596;2023-08-20T11:25:51;4.63;;;1.13;;
52858;SDS011;38721;53.098;6.596;2023-08-20T11:28:16;4.43;;;1.45;;
52858;SDS011;38721;53.098;6.596;2023-08-20T11:30:42;4.28;;;1.55;;
52858;SDS011;38721;53.098;6.596;2023-08-20T11:33:08;4.18;;;1.20;;
52858;SDS011;38721;53.098;6.596;2023-08-20T11:35:34;3.65;;;1.30;;
52858;SDS011;38721;53.098;6.596;2023-08-20T11:38:02;3.17;;;0.98;;
52858;SDS011;38721;53.098;6.596;2023-08-20T11:40:29;3.63;;;1.13;;
52858;SDS011;38721;53.098;6.596;2023-08-20T11:42:57;4.38;;;1.20;;
52858;SDS011;38721;53.098;6.596;2023-08-20T11:45:26;4.28;;;1.50;;
52858;SDS011;38721;53.098;6.596;2023-08-20T11:47:55;4.70;;;1.02;;
52858;SDS011;38721;53.098;6.596;2023-08-20T11:50:25;6.72;;;1.48;;
52858;SDS011;38721;53.098;6.596;2023-08-20T11:52:52;1.67;;;0.95;;
52858;SDS011;38721;53.098;6.596;2023-08-20T11:55:24;2.38;;;1.08;;
52858;SDS011;38721;53.098;6.596;2023-08-20T11:57:51;3.53;;;1.10;;
52858;SDS011;38721;53.098;6.596;2023-08-20T12:00:24;3.95;;;1.13;;
52858;SDS011;38721;53.098;6.596;2023-08-20T12:02:58;4.57;;;1.52;;
52858;SDS011;38721;53.098;6.596;2023-08-20T12:05:27;4.55;;;1.02;;
52858;SDS011;38721;53.098;6.596;2023-08-20T12:07:57;2.47;;;1.08;;
52858;SDS011;38721;53.098;6.596;2023-08-20T12:10:24;4.30;;;1.00;;
52858;SDS011;38721;53.098;6.596;2023-08-20T12:12:50;3.65;;;0.88;;
52858;SDS011;38721;53.098;6.596;2023-08-20T12:15:17;4.68;;;1.10;;
52858;SDS011;38721;53.098;6.596;2023-08-20T12:17:54;3.78;;;1.40;;
52858;SDS011;38721;53.098;6.596;2023-08-20T12:20:23;3.63;;;1.42;;
52858;SDS011;38721;53.098;6.596;2023-08-20T12:22:51;4.20;;;1.40;;
52858;SDS011;38721;53.098;6.596;2023-08-20T12:25:17;3.42;;;1.20;;
52858;SDS011;38721;53.098;6.596;2023-08-20T12:27:45;4.18;;;1.10;;
52858;SDS011;38721;53.098;6.596;2023-08-20T12:30:11;3.00;;;1.10;;
52858;SDS011;38721;53.098;6.596;2023-08-20T12:32:37;3.22;;;1.77;;
52858;SDS011;38721;53.098;6.596;2023-08-20T12:35:03;3.42;;;1.23;;
52858;SDS011;38721;53.098;6.596;2023-08-20T12:37:29;3.33;;;1.02;;
52858;SDS011;38721;53.098;6.596;2023-08-20T12:39:55;5.43;;;1.33;;
52858;SDS011;38721;53.098;6.596;2023-08-20T12:42:20;5.78;;;1.52;;
52858;SDS011;38721;53.098;6.596;2023-08-20T12:44:46;6.07;;;1.40;;
52858;SDS011;38721;53.098;6.596;2023-08-20T12:47:12;4.07;;;1.40;;
52858;SDS011;38721;53.098;6.596;2023-08-20T12:49:38;4.68;;;1.30;;
52858;SDS011;38721;53.098;6.596;2023-08-20T12:52:03;6.10;;;1.80;;
52858;SDS011;38721;53.098;6.596;2023-08-20T12:54:29;6.15;;;1.63;;
52858;SDS011;38721;53.098;6.596;2023-08-20T12:56:54;4.32;;;1.30;;
52858;SDS011;38721;53.098;6.596;2023-08-20T12:59:20;5.03;;;1.40;;
52858;SDS011;38721;53.098;6.596;2023-08-20T13:01:46;3.75;;;1.13;;
52858;SDS011;38721;53.098;6.596;2023-08-20T13:04:12;3.38;;;1.10;;
52858;SDS011;38721;53.098;6.596;2023-08-20T13:06:38;5.20;;;1.30;;
52858;SDS011;38721;53.098;6.596;2023-08-20T13:09:07;3.20;;;1.27;;
52858;SDS011;38721;53.098;6.596;2023-08-20T13:11:34;4.60;;;1.60;;
52858;SDS011;38721;53.098;6.596;2023-08-20T13:14:02;3.92;;;1.02;;
52858;SDS011;38721;53.098;6.596;2023-08-20T13:16:28;3.53;;;1.13;;
52858;SDS011;38721;53.098;6.596;2023-08-20T13:18:58;4.07;;;1.20;;
52858;SDS011;38721;53.098;6.596;2023-08-20T13:21:24;3.78;;;0.90;;
52858;SDS011;38721;53.098;6.596;2023-08-20T13:23:49;4.50;;;1.10;;
52858;SDS011;38721;53.098;6.596;2023-08-20T13:26:15;5.28;;;1.45;;
52858;SDS011;38721;53.098;6.596;2023-08-20T13:28:41;5.03;;;1.25;;
52858;SDS011;38721;53.098;6.596;2023-08-20T13:31:06;6.25;;;1.20;;
52858;SDS011;38721;53.098;6.596;2023-08-20T13:33:32;6.07;;;1.30;;
52858;SDS011;38721;53.098;6.596;2023-08-20T13:35:57;3.88;;;1.50;;
52858;SDS011;38721;53.098;6.596;2023-08-20T13:38:24;3.88;;;1.17;;
52858;SDS011;38721;53.098;6.596;2023-08-20T13:40:50;4.45;;;1.20;;
52858;SDS011;38721;53.098;6.596;2023-08-20T13:43:15;3.90;;;1.25;;
52858;SDS011;38721;53.098;6.596;2023-08-20T13:45:41;6.05;;;1.50;;
52858;SDS011;38721;53.098;6.596;2023-08-20T13:48:07;4.43;;;1.42;;
52858;SDS011;38721;53.098;6.596;2023-08-20T13:50:32;5.20;;;1.38;;
52858;SDS011;38721;53.098;6.596;2023-08-20T13:52:58;3.95;;;1.17;;
52858;SDS011;38721;53.098;6.596;2023-08-20T13:55:24;6.57;;;1.45;;
52858;SDS011;38721;53.098;6.596;2023-08-20T13:57:49;4.57;;;1.45;;
52858;SDS011;38721;53.098;6.596;2023-08-20T14:00:15;4.97;;;1.20;;
52858;SDS011;38721;53.098;6.596;2023-08-20T14:02:41;4.80;;;1.45;;
52858;SDS011;38721;53.098;6.596;2023-08-20T14:05:07;4.70;;;1.63;;
52858;SDS011;38721;53.098;6.596;2023-08-20T14:07:33;4.65;;;1.33;;
52858;SDS011;38721;53.098;6.596;2023-08-20T14:09:59;4.88;;;1.40;;
52858;SDS011;38721;53.098;6.596;2023-08-20T14:12:25;2.80;;;1.20;;
52858;SDS011;38721;53.098;6.596;2023-08-20T14:14:50;4.63;;;1.40;;
52858;SDS011;38721;53.098;6.596;2023-08-20T14:17:16;5.68;;;1.58;;
52858;SDS011;38721;53.098;6.596;2023-08-20T14:19:42;5.88;;;1.50;;
52858;SDS011;38721;53.098;6.596;2023-08-20T14:22:07;4.90;;;1.42;;
52858;SDS011;38721;53.098;6.596;2023-08-20T14:24:33;2.67;;;1.10;;
52858;SDS011;38721;53.098;6.596;2023-08-20T14:26:59;5.65;;;1.85;;
52858;SDS011;38721;53.098;6.596;2023-08-20T14:29:24;5.80;;;1.30;;
52858;SDS011;38721;53.098;6.596;2023-08-20T14:31:50;5.30;;;1.50;;
52858;SDS011;38721;53.098;6.596;2023-08-20T14:34:15;5.15;;;1.25;;
52858;SDS011;38721;53.098;6.596;2023-08-20T14:36:41;5.28;;;1.30;;
52858;SDS011;38721;53.098;6.596;2023-08-20T14:39:07;6.45;;;1.52;;
52858;SDS011;38721;53.098;6.596;2023-08-20T14:41:32;3.50;;;1.23;;
52858;SDS011;38721;53.098;6.596;2023-08-20T14:44:02;5.47;;;1.30;;
52858;SDS011;38721;53.098;6.596;2023-08-20T14:46:28;7.20;;;1.30;;
52858;SDS011;38721;53.098;6.596;2023-08-20T14:48:53;3.75;;;1.15;;
52858;SDS011;38721;53.098;6.596;2023-08-20T14:51:20;6.35;;;1.30;;
52858;SDS011;38721;53.098;6.596;2023-08-20T14:53:46;4.03;;;1.15;;
52858;SDS011;38721;53.098;6.596;2023-08-20T14:56:12;4.68;;;1.17;;
52858;SDS011;38721;53.098;6.596;2023-08-20T14:58:38;2.55;;;1.02;;
52858;SDS011;38721;53.098;6.596;2023-08-20T15:01:03;2.63;;;1.20;;
52858;SDS011;38721;53.098;6.596;2023-08-20T15:03:29;5.43;;;1.30;;